sensor_id;sensor_type;location;lat;lon;timestamp;pressure;altitude;pressure_sealevel;temperature;humidity
77003;BME280;65939;50.060;14.288;2023-12-22T00:00:00;94908.13;;;3.58;92.28
77003;BME280;65939;50.060;14.288;2023-12-22T00:02:04;94913.00;;;3.53;92.18
77003;BME280;65939;50.060;14.288;2023-12-22T00:04:05;94919.56;;;3.55;92.35
77003;BME280;65939;50.060;14.288;2023-12-22T00:06:07;94914.09;;;3.58;92.18
77003;BME280;65939;50.060;14.288;2023-12-22T00:08:08;94918.09;;;3.61;92.35
77003;BME280;65939;50.060;14.288;2023-12-22T00:10:08;94911.63;;;3.65;92.14
77003;BME280;65939;50.060;14.288;2023-12-22T00:12:09;94916.25;;;3.70;92.04
77003;BME280;65939;50.060;14.288;2023-12-22T00:14:10;94913.97;;;3.75;91.98
77003;BME280;65939;50.060;14.288;2023-12-22T00:16:11;94920.41;;;3.79;91.32
77003;BME280;65939;50.060;14.288;2023-12-22T00:18:12;94918.28;;;3.82;91.08
77003;BME280;65939;50.060;14.288;2023-12-22T00:20:13;94902.59;;;3.84;90.38
77003;BME280;65939;50.060;14.288;2023-12-22T00:22:14;94905.03;;;3.86;90.50
77003;BME280;65939;50.060;14.288;2023-12-22T00:24:15;94905.66;;;3.88;89.84
77003;BME280;65939;50.060;14.288;2023-12-22T00:26:15;94900.47;;;3.88;89.54
77003;BME280;65939;50.060;14.288;2023-12-22T00:28:16;94896.66;;;3.83;88.66
77003;BME280;65939;50.060;14.288;2023-12-22T00:30:17;94895.41;;;3.79;88.89
77003;BME280;65939;50.060;14.288;2023-12-22T00:32:18;94896.44;;;3.70;88.46
77003;BME280;65939;50.060;14.288;2023-12-22T00:34:18;94900.97;;;3.68;87.52
77003;BME280;65939;50.060;14.288;2023-12-22T00:36:20;94900.69;;;3.63;87.92
77003;BME280;65939;50.060;14.288;2023-12-22T00:38:24;94903.59;;;3.60;87.88
77003;BME280;65939;50.060;14.288;2023-12-22T00:40:25;94909.72;;;3.59;87.59
77003;BME280;65939;50.060;14.288;2023-12-22T00:42:25;94904.94;;;3.56;87.28
77003;BME280;65939;50.060;14.288;2023-12-22T00:44:26;94913.63;;;3.55;87.02
77003;BME280;65939;50.060;14.288;2023-12-22T00:46:29;94911.03;;;3.55;86.60
77003;BME280;65939;50.060;14.288;2023-12-22T00:48:30;94902.50;;;3.54;86.29
77003;BME280;65939;50.060;14.288;2023-12-22T00:50:30;94907.03;;;3.52;86.40
77003;BME280;65939;50.060;14.288;2023-12-22T00:52:31;94906.75;;;3.47;86.34
77003;BME280;65939;50.060;14.288;2023-12-22T00:54:32;94919.81;;;3.46;86.37
77003;BME280;65939;50.060;14.288;2023-12-22T00:56:34;94927.56;;;3.46;86.18
77003;BME280;65939;50.060;14.288;2023-12-22T00:58:34;94930.75;;;3.48;85.87
77003;BME280;65939;50.060;14.288;2023-12-22T01:00:35;94942.50;;;3.50;86.35
77003;BME280;65939;50.060;14.288;2023-12-22T01:02:36;94938.81;;;3.53;86.58
77003;BME280;65939;50.060;14.288;2023-12-22T01:04:37;94942.63;;;3.57;86.28
77003;BME280;65939;50.060;14.288;2023-12-22T01:06:38;94941.31;;;3.61;86.73
77003;BME280;65939;50.060;14.288;2023-12-22T01:08:39;94933.25;;;3.64;86.49
77003;BME280;65939;50.060;14.288;2023-12-22T01:10:40;94935.97;;;3.63;86.27
77003;BME280;65939;50.060;14.288;2023-12-22T01:12:40;94937.16;;;3.60;86.08
77003;BME280;65939;50.060;14.288;2023-12-22T01:14:41;94939.41;;;3.55;86.00
77003;BME280;65939;50.060;14.288;2023-12-22T01:16:42;94946.88;;;3.50;85.79
77003;BME280;65939;50.060;14.288;2023-12-22T01:18:43;94949.97;;;3.45;85.71
77003;BME280;65939;50.060;14.288;2023-12-22T01:20:44;94958.03;;;3.42;86.26
77003;BME280;65939;50.060;14.288;2023-12-22T01:22:45;94960.94;;;3.39;86.28
77003;BME280;65939;50.060;14.288;2023-12-22T01:24:46;94967.09;;;3.38;86.00
77003;BME280;65939;50.060;14.288;2023-12-22T01:26:46;94968.03;;;3.37;86.17
77003;BME280;65939;50.060;14.288;2023-12-22T01:28:47;94963.69;;;3.38;85.84
77003;BME280;65939;50.060;14.288;2023-12-22T01:30:48;94969.66;;;3.38;85.63
77003;BME280;65939;50.060;14.288;2023-12-22T01:32:48;94978.22;;;3.39;85.79
77003;BME280;65939;50.060;14.288;2023-12-22T01:34:49;94967.88;;;3.39;86.05
77003;BME280;65939;50.060;14.288;2023-12-22T01:36:50;94975.63;;;3.39;85.74
77003;BME280;65939;50.060;14.288;2023-12-22T01:38:50;94969.03;;;3.36;85.58
77003;BME280;65939;50.060;14.288;2023-12-22T01:40:51;94989.00;;;3.34;85.58
77003;BME280;65939;50.060;14.288;2023-12-22T01:42:52;94986.59;;;3.32;85.42
77003;BME280;65939;50.060;14.288;2023-12-22T01:44:52;94993.38;;;3.33;85.67
77003;BME280;65939;50.060;14.288;2023-12-22T01:46:53;94994.00;;;3.35;85.58
77003;BME280;65939;50.060;14.288;2023-12-22T01:48:54;94985.94;;;3.39;85.92
77003;BME280;65939;50.060;14.288;2023-12-22T01:50:56;94981.59;;;3.39;85.79
77003;BME280;65939;50.060;14.288;2023-12-22T01:52:59;94974.66;;;3.40;85.38
77003;BME280;65939;50.060;14.288;2023-12-22T01:54:59;94975.28;;;3.42;85.26
77003;BME280;65939;50.060;14.288;2023-12-22T01:57:02;94981.25;;;3.42;84.70
77003;BME280;65939;50.060;14.288;2023-12-22T01:59:03;94983.97;;;3.41;84.48
77003;BME280;65939;50.060;14.288;2023-12-22T02:01:04;94976.44;;;3.39;84.40
77003;BME280;65939;50.060;14.288;2023-12-22T02:03:05;94983.50;;;3.37;84.58
77003;BME280;65939;50.060;14.288;2023-12-22T02:05:06;94989.84;;;3.34;84.55
77003;BME280;65939;50.060;14.288;2023-12-22T02:07:09;94990.63;;;3.35;84.54
77003;BME280;65939;50.060;14.288;2023-12-22T02:09:11;94985.63;;;3.33;84.29
77003;BME280;65939;50.060;14.288;2023-12-22T02:11:11;94991.13;;;3.30;83.96
77003;BME280;65939;50.060;14.288;2023-12-22T02:13:13;94988.06;;;3.27;84.04
77003;BME280;65939;50.060;14.288;2023-12-22T02:15:14;94986.66;;;3.24;83.78
77003;BME280;65939;50.060;14.288;2023-12-22T02:22:00;94968.13;;;3.21;83.37
77003;BME280;65939;50.060;14.288;2023-12-22T02:24:00;94969.09;;;3.20;83.87
77003;BME280;65939;50.060;14.288;2023-12-22T02:26:10;94967.66;;;3.17;83.80
77003;BME280;65939;50.060;14.288;2023-12-22T02:28:18;94978.13;;;3.16;83.56
77003;BME280;65939;50.060;14.288;2023-12-22T02:32:49;94963.16;;;3.11;83.83
77003;BME280;65939;50.060;14.288;2023-12-22T02:34:53;94958.34;;;3.08;83.79
77003;BME280;65939;50.060;14.288;2023-12-22T02:36:56;94965.44;;;3.06;83.53
77003;BME280;65939;50.060;14.288;2023-12-22T02:38:59;94967.38;;;3.04;83.38
77003;BME280;65939;50.060;14.288;2023-12-22T02:41:03;94965.13;;;3.01;83.16
77003;BME280;65939;50.060;14.288;2023-12-22T02:43:05;94961.28;;;2.97;83.39
77003;BME280;65939;50.060;14.288;2023-12-22T02:45:14;94959.03;;;2.94;83.57
77003;BME280;65939;50.060;14.288;2023-12-22T02:47:15;94960.97;;;2.92;83.16
77003;BME280;65939;50.060;14.288;2023-12-22T02:49:16;94956.00;;;2.90;83.78
77003;BME280;65939;50.060;14.288;2023-12-22T02:51:17;94952.75;;;2.88;83.47
77003;BME280;65939;50.060;14.288;2023-12-22T02:53:18;94951.00;;;2.88;83.16
77003;BME280;65939;50.060;14.288;2023-12-22T02:55:18;94942.81;;;2.85;82.96
77003;BME280;65939;50.060;14.288;2023-12-22T02:57:19;94964.22;;;2.85;83.01
77003;BME280;65939;50.060;14.288;2023-12-22T02:59:20;94953.25;;;2.83;83.36
77003;BME280;65939;50.060;14.288;2023-12-22T03:01:20;94962.94;;;2.81;82.68
77003;BME280;65939;50.060;14.288;2023-12-22T03:03:21;94966.47;;;2.80;82.77
77003;BME280;65939;50.060;14.288;2023-12-22T03:05:22;94960.53;;;2.80;82.72
77003;BME280;65939;50.060;14.288;2023-12-22T03:07:22;94948.63;;;2.79;82.32
77003;BME280;65939;50.060;14.288;2023-12-22T03:09:23;94950.41;;;2.78;82.36
77003;BME280;65939;50.060;14.288;2023-12-22T03:11:23;94948.63;;;2.79;82.33
77003;BME280;65939;50.060;14.288;2023-12-22T03:13:24;94943.63;;;2.77;82.49
77003;BME280;65939;50.060;14.288;2023-12-22T03:15:25;94950.41;;;2.78;82.19
77003;BME280;65939;50.060;14.288;2023-12-22T03:17:26;94937.50;;;2.78;81.89
77003;BME280;65939;50.060;14.288;2023-12-22T03:19:27;94958.13;;;2.78;81.68
77003;BME280;65939;50.060;14.288;2023-12-22T03:21:28;94963.28;;;2.78;81.48
77003;BME280;65939;50.060;14.288;2023-12-22T03:23:29;94975.19;;;2.79;80.96
77003;BME280;65939;50.060;14.288;2023-12-22T03:25:29;94970.03;;;2.79;80.86
77003;BME280;65939;50.060;14.288;2023-12-22T03:27:30;94978.72;;;2.78;81.50
77003;BME280;65939;50.060;14.288;2023-12-22T03:29:31;94984.84;;;2.77;80.74
77003;BME280;65939;50.060;14.288;2023-12-22T03:31:31;94980.66;;;2.76;80.80
77003;BME280;65939;50.060;14.288;2023-12-22T03:33:32;94982.25;;;2.77;80.45
77003;BME280;65939;50.060;14.288;2023-12-22T03:35:33;94990.63;;;2.79;80.62
77003;BME280;65939;50.060;14.288;2023-12-22T03:37:34;94999.03;;;2.81;80.00
77003;BME280;65939;50.060;14.288;2023-12-22T03:39:34;94999.66;;;2.83;80.13
77003;BME280;65939;50.060;14.288;2023-12-22T03:41:35;94990.94;;;2.84;80.08
77003;BME280;65939;50.060;14.288;2023-12-22T03:43:35;94988.22;;;2.86;79.61
77003;BME280;65939;50.060;14.288;2023-12-22T03:45:36;94994.81;;;2.88;79.44
77003;BME280;65939;50.060;14.288;2023-12-22T03:47:37;94990.47;;;2.89;79.55
77003;BME280;65939;50.060;14.288;2023-12-22T03:49:37;94985.13;;;2.91;79.04
77003;BME280;65939;50.060;14.288;2023-12-22T03:51:38;94973.53;;;2.95;78.73
77003;BME280;65939;50.060;14.288;2023-12-22T03:53:42;95000.56;;;2.99;79.24
77003;BME280;65939;50.060;14.288;2023-12-22T03:55:42;94994.94;;;3.03;79.73
77003;BME280;65939;50.060;14.288;2023-12-22T03:57:43;94991.19;;;3.06;79.53
77003;BME280;65939;50.060;14.288;2023-12-22T03:59:43;94985.25;;;3.05;78.74
77003;BME280;65939;50.060;14.288;2023-12-22T04:01:44;94980.88;;;3.06;78.71
77003;BME280;65939;50.060;14.288;2023-12-22T04:03:50;94972.53;;;3.04;78.30
77003;BME280;65939;50.060;14.288;2023-12-22T04:05:51;94964.16;;;3.02;79.12
77003;BME280;65939;50.060;14.288;2023-12-22T04:07:51;94960.16;;;2.99;78.92
77003;BME280;65939;50.060;14.288;2023-12-22T04:09:52;94964.47;;;2.99;78.64
77003;BME280;65939;50.060;14.288;2023-12-22T04:11:52;94947.41;;;2.98;79.45
77003;BME280;65939;50.060;14.288;2023-12-22T04:13:53;94956.13;;;2.97;78.78
77003;BME280;65939;50.060;14.288;2023-12-22T04:15:54;94956.13;;;2.97;78.67
77003;BME280;65939;50.060;14.288;2023-12-22T04:17:54;94962.25;;;2.96;79.38
77003;BME280;65939;50.060;14.288;2023-12-22T04:19:55;94976.91;;;2.95;79.07
77003;BME280;65939;50.060;14.288;2023-12-22T04:21:56;94973.53;;;2.95;78.88
77003;BME280;65939;50.060;14.288;2023-12-22T04:23:56;94982.22;;;2.94;78.64
77003;BME280;65939;50.060;14.288;2023-12-22T04:25:57;94968.38;;;2.95;78.95
77003;BME280;65939;50.060;14.288;2023-12-22T04:27:57;94956.47;;;2.94;78.83
77003;BME280;65939;50.060;14.288;2023-12-22T04:29:58;94961.63;;;2.94;79.12
77003;BME280;65939;50.060;14.288;2023-12-22T04:31:59;94958.72;;;2.97;78.80
77003;BME280;65939;50.060;14.288;2023-12-22T04:33:59;94950.97;;;2.97;79.35
77003;BME280;65939;50.060;14.288;2023-12-22T04:36:00;94948.22;;;2.98;79.22
77003;BME280;65939;50.060;14.288;2023-12-22T04:38:01;94943.06;;;2.98;78.92
77003;BME280;65939;50.060;14.288;2023-12-22T04:40:01;94939.88;;;2.96;79.41
77003;BME280;65939;50.060;14.288;2023-12-22T04:42:03;94946.81;;;2.96;79.61
77003;BME280;65939;50.060;14.288;2023-12-22T04:44:04;94953.69;;;2.95;79.71
77003;BME280;65939;50.060;14.288;2023-12-22T04:46:04;94966.44;;;2.97;79.68
77003;BME280;65939;50.060;14.288;2023-12-22T04:48:05;94970.28;;;3.01;80.06
77003;BME280;65939;50.060;14.288;2023-12-22T04:50:06;94958.06;;;3.03;79.79
77003;BME280;65939;50.060;14.288;2023-12-22T04:52:07;94951.13;;;3.03;79.56
77003;BME280;65939;50.060;14.288;2023-12-22T04:54:08;94955.94;;;3.06;79.10
77003;BME280;65939;50.060;14.288;2023-12-22T04:56:08;94965.09;;;3.09;79.85
77003;BME280;65939;50.060;14.288;2023-12-22T04:58:09;94961.06;;;3.15;79.87
77003;BME280;65939;50.060;14.288;2023-12-22T05:00:10;94968.94;;;3.21;80.06
77003;BME280;65939;50.060;14.288;2023-12-22T05:02:11;94975.19;;;3.27;79.96
77003;BME280;65939;50.060;14.288;2023-12-22T05:04:12;94977.09;;;3.33;79.49
77003;BME280;65939;50.060;14.288;2023-12-22T05:06:12;94983.38;;;3.39;79.87
77003;BME280;65939;50.060;14.288;2023-12-22T05:08:13;94983.84;;;3.42;79.70
77003;BME280;65939;50.060;14.288;2023-12-22T05:10:14;94981.72;;;3.46;79.90
77003;BME280;65939;50.060;14.288;2023-12-22T05:12:14;94986.88;;;3.46;80.07
77003;BME280;65939;50.060;14.288;2023-12-22T05:14:15;94998.97;;;3.45;81.08
77003;BME280;65939;50.060;14.288;2023-12-22T05:16:16;94993.44;;;3.17;82.29
77003;BME280;65939;50.060;14.288;2023-12-22T05:18:16;94992.41;;;2.79;84.86
77003;BME280;65939;50.060;14.288;2023-12-22T05:20:17;94992.13;;;2.57;86.58
77003;BME280;65939;50.060;14.288;2023-12-22T05:22:17;94976.84;;;2.48;87.77
77003;BME280;65939;50.060;14.288;2023-12-22T05:24:18;94976.53;;;2.43;88.42
77003;BME280;65939;50.060;14.288;2023-12-22T05:26:20;94990.53;;;2.40;89.60
77003;BME280;65939;50.060;14.288;2023-12-22T05:28:20;94997.59;;;2.38;89.75
77003;BME280;65939;50.060;14.288;2023-12-22T05:30:21;94999.38;;;2.37;89.86
77003;BME280;65939;50.060;14.288;2023-12-22T05:32:22;95012.25;;;2.37;90.32
77003;BME280;65939;50.060;14.288;2023-12-22T05:34:23;95020.16;;;2.36;91.07
77003;BME280;65939;50.060;14.288;2023-12-22T05:36:23;95009.69;;;2.37;91.10
77003;BME280;65939;50.060;14.288;2023-12-22T05:38:25;95005.31;;;2.38;90.94
77003;BME280;65939;50.060;14.288;2023-12-22T05:40:26;94998.75;;;2.35;91.19
77003;BME280;65939;50.060;14.288;2023-12-22T05:42:26;95001.47;;;2.34;90.59
77003;BME280;65939;50.060;14.288;2023-12-22T05:44:27;95006.94;;;2.31;90.85
77003;BME280;65939;50.060;14.288;2023-12-22T05:46:30;95023.53;;;2.28;91.15
77003;BME280;65939;50.060;14.288;2023-12-22T05:48:31;95017.59;;;2.28;90.88
77003;BME280;65939;50.060;14.288;2023-12-22T05:50:31;95017.59;;;2.28;90.84
77003;BME280;65939;50.060;14.288;2023-12-22T05:52:32;95018.69;;;2.25;91.52
77003;BME280;65939;50.060;14.288;2023-12-22T05:54:32;95027.72;;;2.21;90.99
77003;BME280;65939;50.060;14.288;2023-12-22T05:56:33;95021.41;;;2.24;91.29
77003;BME280;65939;50.060;14.288;2023-12-22T05:58:34;95026.25;;;2.27;90.92
77003;BME280;65939;50.060;14.288;2023-12-22T06:00:35;95042.03;;;2.32;90.72
77003;BME280;65939;50.060;14.288;2023-12-22T06:02:36;95027.22;;;2.34;90.62
77003;BME280;65939;50.060;14.288;2023-12-22T06:04:37;95018.56;;;2.35;90.69
77003;BME280;65939;50.060;14.288;2023-12-22T06:06:38;95021.75;;;2.37;89.63
77003;BME280;65939;50.060;14.288;2023-12-22T06:08:38;95019.97;;;2.37;89.23
77003;BME280;65939;50.060;14.288;2023-12-22T06:10:39;95015.81;;;2.36;89.70
77003;BME280;65939;50.060;14.288;2023-12-22T06:12:41;95020.28;;;2.34;89.38
77003;BME280;65939;50.060;14.288;2023-12-22T06:14:41;95034.94;;;2.34;89.31
77003;BME280;65939;50.060;14.288;2023-12-22T06:16:42;95036.09;;;2.31;89.53
77003;BME280;65939;50.060;14.288;2023-12-22T06:18:43;95052.47;;;2.30;88.89
77003;BME280;65939;50.060;14.288;2023-12-22T06:20:43;95061.19;;;2.29;89.13
77003;BME280;65939;50.060;14.288;2023-12-22T06:22:44;95089.00;;;2.26;90.02
77003;BME280;65939;50.060;14.288;2023-12-22T06:24:44;95047.16;;;2.07;89.67
77003;BME280;65939;50.060;14.288;2023-12-22T06:26:45;95059.81;;;1.84;90.89
77003;BME280;65939;50.060;14.288;2023-12-22T06:28:46;95079.00;;;1.56;92.76
77003;BME280;65939;50.060;14.288;2023-12-22T06:30:46;95062.72;;;1.39;94.17
77003;BME280;65939;50.060;14.288;2023-12-22T06:32:47;95075.31;;;1.24;95.14
77003;BME280;65939;50.060;14.288;2023-12-22T06:34:48;95060.53;;;1.18;95.62
77003;BME280;65939;50.060;14.288;2023-12-22T06:36:49;95058.25;;;1.15;96.04
77003;BME280;65939;50.060;14.288;2023-12-22T06:38:51;95049.59;;;1.16;96.65
77003;BME280;65939;50.060;14.288;2023-12-22T06:40:53;95056.19;;;1.18;97.57
77003;BME280;65939;50.060;14.288;2023-12-22T06:42:55;95032.09;;;1.19;97.67
77003;BME280;65939;50.060;14.288;2023-12-22T06:44:56;95021.69;;;1.21;98.16
77003;BME280;65939;50.060;14.288;2023-12-22T06:46:56;95017.47;;;1.20;98.43
77003;BME280;65939;50.060;14.288;2023-12-22T06:48:57;95024.09;;;1.23;99.28
77003;BME280;65939;50.060;14.288;2023-12-22T06:50:58;95041.28;;;1.22;99.23
77003;BME280;65939;50.060;14.288;2023-12-22T06:52:59;95037.09;;;1.21;98.69
77003;BME280;65939;50.060;14.288;2023-12-22T06:55:00;95056.69;;;1.22;99.01
77003;BME280;65939;50.060;14.288;2023-12-22T06:57:01;95061.03;;;1.22;99.57
77003;BME280;65939;50.060;14.288;2023-12-22T06:59:02;95057.50;;;1.23;99.02
77003;BME280;65939;50.060;14.288;2023-12-22T07:01:03;95059.91;;;1.24;98.99
77003;BME280;65939;50.060;14.288;2023-12-22T07:03:03;95069.88;;;1.27;99.72
77003;BME280;65939;50.060;14.288;2023-12-22T07:07:20;95076.66;;;1.28;99.79
77003;BME280;65939;50.060;14.288;2023-12-22T07:11:21;95078.88;;;1.31;99.42
77003;BME280;65939;50.060;14.288;2023-12-22T07:13:22;95078.75;;;1.33;99.52
77003;BME280;65939;50.060;14.288;2023-12-22T07:15:22;95082.28;;;1.32;99.42
77003;BME280;65939;50.060;14.288;2023-12-22T07:17:23;95076.00;;;1.34;98.63
77003;BME280;65939;50.060;14.288;2023-12-22T07:19:24;95069.75;;;1.37;99.18
77003;BME280;65939;50.060;14.288;2023-12-22T07:21:24;95076.38;;;1.39;98.89
77003;BME280;65939;50.060;14.288;2023-12-22T07:23:26;95077.00;;;1.41;98.47
77003;BME280;65939;50.060;14.288;2023-12-22T07:25:26;95077.50;;;1.45;98.44
77003;BME280;65939;50.060;14.288;2023-12-22T07:27:27;95076.22;;;1.49;98.16
77003;BME280;65939;50.060;14.288;2023-12-22T07:29:28;95071.91;;;1.50;98.23
77003;BME280;65939;50.060;14.288;2023-12-22T07:31:28;95073.72;;;1.57;97.44
77003;BME280;65939;50.060;14.288;2023-12-22T07:33:29;95078.06;;;1.57;96.82
77003;BME280;65939;50.060;14.288;2023-12-22T07:35:30;95075.81;;;1.62;96.17
77003;BME280;65939;50.060;14.288;2023-12-22T07:37:30;95096.22;;;1.63;95.69
77003;BME280;65939;50.060;14.288;2023-12-22T07:39:31;95083.22;;;1.65;95.70
77003;BME280;65939;50.060;14.288;2023-12-22T07:41:32;95087.25;;;1.67;95.21
77003;BME280;65939;50.060;14.288;2023-12-22T07:43:33;95089.50;;;1.71;95.70
77003;BME280;65939;50.060;14.288;2023-12-22T07:45:33;95090.97;;;1.73;94.84
77003;BME280;65939;50.060;14.288;2023-12-22T07:47:34;95084.22;;;1.80;95.25
77003;BME280;65939;50.060;14.288;2023-12-22T07:49:36;95085.22;;;1.87;95.14
77003;BME280;65939;50.060;14.288;2023-12-22T07:51:37;95077.50;;;1.96;94.70
77003;BME280;65939;50.060;14.288;2023-12-22T07:53:38;95087.34;;;2.00;94.72
77003;BME280;65939;50.060;14.288;2023-12-22T07:55:39;95077.56;;;2.04;94.70
77003;BME280;65939;50.060;14.288;2023-12-22T07:57:40;95087.53;;;2.07;93.87
77003;BME280;65939;50.060;14.288;2023-12-22T07:59:41;95085.59;;;2.09;94.38
77003;BME280;65939;50.060;14.288;2023-12-22T08:01:42;95089.63;;;2.11;93.21
77003;BME280;65939;50.060;14.288;2023-12-22T08:03:43;95083.06;;;2.17;93.10
77003;BME280;65939;50.060;14.288;2023-12-22T08:05:44;95087.53;;;2.23;93.33
77003;BME280;65939;50.060;14.288;2023-12-22T08:07:44;95094.31;;;2.24;92.29
77003;BME280;65939;50.060;14.288;2023-12-22T08:09:45;95084.50;;;2.28;92.72
77003;BME280;65939;50.060;14.288;2023-12-22T08:11:46;95086.44;;;2.34;91.91
77003;BME280;65939;50.060;14.288;2023-12-22T08:13:48;95100.13;;;2.43;91.84
77003;BME280;65939;50.060;14.288;2023-12-22T08:15:48;95111.25;;;2.51;91.45
77003;BME280;65939;50.060;14.288;2023-12-22T08:17:49;95120.13;;;2.57;90.34
77003;BME280;65939;50.060;14.288;2023-12-22T08:19:52;95133.00;;;2.57;89.84
77003;BME280;65939;50.060;14.288;2023-12-22T08:21:53;95125.56;;;2.54;90.09
77003;BME280;65939;50.060;14.288;2023-12-22T08:23:55;95130.25;;;2.50;89.97
77003;BME280;65939;50.060;14.288;2023-12-22T08:25:55;95130.88;;;2.44;90.46
77003;BME280;65939;50.060;14.288;2023-12-22T08:27:58;95143.13;;;2.42;90.50
77003;BME280;65939;50.060;14.288;2023-12-22T08:29:58;95141.59;;;2.15;90.67
77003;BME280;65939;50.060;14.288;2023-12-22T08:32:00;95152.09;;;1.87;92.15
77003;BME280;65939;50.060;14.288;2023-12-22T08:34:00;95153.34;;;1.75;93.71
77003;BME280;65939;50.060;14.288;2023-12-22T08:36:01;95143.00;;;1.67;93.93
77003;BME280;65939;50.060;14.288;2023-12-22T08:38:03;95140.78;;;1.64;94.97
77003;BME280;65939;50.060;14.288;2023-12-22T08:40:04;95139.13;;;1.63;95.47
77003;BME280;65939;50.060;14.288;2023-12-22T08:42:06;95153.63;;;1.64;96.58
77003;BME280;65939;50.060;14.288;2023-12-22T08:44:07;95153.63;;;1.64;97.15
77003;BME280;65939;50.060;14.288;2023-12-22T08:46:08;95143.34;;;1.64;96.25
77003;BME280;65939;50.060;14.288;2023-12-22T08:48:10;95136.53;;;1.55;97.04
77003;BME280;65939;50.060;14.288;2023-12-22T08:50:11;95126.06;;;1.48;97.14
77003;BME280;65939;50.060;14.288;2023-12-22T08:52:13;95149.78;;;1.42;97.79
77003;BME280;65939;50.060;14.288;2023-12-22T08:54:14;95141.56;;;1.38;97.58
77003;BME280;65939;50.060;14.288;2023-12-22T08:56:15;95153.50;;;1.39;98.30
77003;BME280;65939;50.060;14.288;2023-12-22T08:58:17;95136.09;;;1.33;98.86
77003;BME280;65939;50.060;14.288;2023-12-22T09:00:18;95138.66;;;1.33;99.52
77003;BME280;65939;50.060;14.288;2023-12-22T09:02:19;95156.50;;;1.35;99.13
77003;BME280;65939;50.060;14.288;2023-12-22T09:04:19;95148.50;;;1.38;99.54
77003;BME280;65939;50.060;14.288;2023-12-22T09:06:24;95160.06;;;1.42;100.00
77003;BME280;65939;50.060;14.288;2023-12-22T09:08:25;95173.44;;;1.46;99.74
77003;BME280;65939;50.060;14.288;2023-12-22T09:10:26;95177.63;;;1.47;99.87
77003;BME280;65939;50.060;14.288;2023-12-22T09:12:27;95173.31;;;1.47;100.00
77003;BME280;65939;50.060;14.288;2023-12-22T09:14:28;95168.34;;;1.54;100.00
77003;BME280;65939;50.060;14.288;2023-12-22T09:16:29;95176.09;;;1.62;100.00
77003;BME280;65939;50.060;14.288;2023-12-22T09:18:30;95169.69;;;1.66;100.00
77003;BME280;65939;50.060;14.288;2023-12-22T09:20:31;95168.94;;;1.74;99.77
77003;BME280;65939;50.060;14.288;2023-12-22T09:22:32;95163.19;;;1.80;100.00
77003;BME280;65939;50.060;14.288;2023-12-22T09:24:32;95169.31;;;1.87;99.30
77003;BME280;65939;50.060;14.288;2023-12-22T09:26:33;95183.34;;;1.92;98.74
77003;BME280;65939;50.060;14.288;2023-12-22T09:28:34;95182.69;;;1.99;98.62
77003;BME280;65939;50.060;14.288;2023-12-22T09:30:35;95170.19;;;2.04;98.17
77003;BME280;65939;50.060;14.288;2023-12-22T09:32:36;95168.91;;;2.08;97.90
77003;BME280;65939;50.060;14.288;2023-12-22T09:34:37;95165.72;;;2.14;97.06
77003;BME280;65939;50.060;14.288;2023-12-22T09:36:37;95164.59;;;2.16;96.10
77003;BME280;65939;50.060;14.288;2023-12-22T09:38:38;95170.41;;;2.27;95.96
77003;BME280;65939;50.060;14.288;2023-12-22T09:40:39;95170.28;;;2.36;95.27
77003;BME280;65939;50.060;14.288;2023-12-22T09:42:41;95171.44;;;2.42;95.05
77003;BME280;65939;50.060;14.288;2023-12-22T09:44:43;95167.09;;;2.51;94.28
77003;BME280;65939;50.060;14.288;2023-12-22T09:46:44;95175.97;;;2.56;93.56
77003;BME280;65939;50.060;14.288;2023-12-22T09:48:45;95197.88;;;2.60;93.74
77003;BME280;65939;50.060;14.288;2023-12-22T09:50:46;95193.53;;;2.61;93.41
77003;BME280;65939;50.060;14.288;2023-12-22T09:52:47;95215.25;;;2.58;93.27
77003;BME280;65939;50.060;14.288;2023-12-22T09:54:48;95203.28;;;2.41;93.07
77003;BME280;65939;50.060;14.288;2023-12-22T09:56:50;95219.47;;;2.17;92.86
77003;BME280;65939;50.060;14.288;2023-12-22T09:58:53;95223.56;;;2.02;94.37
77003;BME280;65939;50.060;14.288;2023-12-22T10:00:55;95230.91;;;1.88;94.21
77003;BME280;65939;50.060;14.288;2023-12-22T10:02:57;95248.63;;;1.39;97.74
77003;BME280;65939;50.060;14.288;2023-12-22T10:04:57;95264.41;;;0.91;100.00
77003;BME280;65939;50.060;14.288;2023-12-22T10:06:58;95239.69;;;0.72;100.00
77003;BME280;65939;50.060;14.288;2023-12-22T10:09:04;95224.50;;;0.61;100.00
77003;BME280;65939;50.060;14.288;2023-12-22T10:11:08;95197.84;;;0.62;100.00
77003;BME280;65939;50.060;14.288;2023-12-22T10:13:09;95204.59;;;0.63;100.00
77003;BME280;65939;50.060;14.288;2023-12-22T10:15:12;95204.59;;;0.63;100.00
77003;BME280;65939;50.060;14.288;2023-12-22T10:17:15;95212.47;;;0.61;100.00
77003;BME280;65939;50.060;14.288;2023-12-22T10:19:15;95215.31;;;0.58;100.00
77003;BME280;65939;50.060;14.288;2023-12-22T10:21:16;95230.31;;;0.53;100.00
77003;BME280;65939;50.060;14.288;2023-12-22T10:23:16;95228.88;;;0.51;100.00
77003;BME280;65939;50.060;14.288;2023-12-22T10:25:20;95246.97;;;0.49;100.00
77003;BME280;65939;50.060;14.288;2023-12-22T10:27:23;95224.69;;;0.50;100.00
77003;BME280;65939;50.060;14.288;2023-12-22T10:29:23;95238.47;;;0.48;100.00
77003;BME280;65939;50.060;14.288;2023-12-22T10:31:24;95247.78;;;0.50;100.00
77003;BME280;65939;50.060;14.288;2023-12-22T10:33:26;95237.50;;;0.50;100.00
77003;BME280;65939;50.060;14.288;2023-12-22T10:35:27;95243.31;;;0.52;100.00
77003;BME280;65939;50.060;14.288;2023-12-22T10:37:27;95244.00;;;0.54;100.00
77003;BME280;65939;50.060;14.288;2023-12-22T10:39:29;95256.84;;;0.54;100.00
77003;BME280;65939;50.060;14.288;2023-12-22T10:41:31;95248.16;;;0.55;100.00
77003;BME280;65939;50.060;14.288;2023-12-22T10:43:38;95265.06;;;0.57;100.00
77003;BME280;65939;50.060;14.288;2023-12-22T10:45:40;95249.66;;;0.57;100.00
77003;BME280;65939;50.060;14.288;2023-12-22T10:47:40;95249.50;;;0.59;100.00
77003;BME280;65939;50.060;14.288;2023-12-22T10:49:41;95249.50;;;0.59;100.00
77003;BME280;65939;50.060;14.288;2023-12-22T10:51:43;95251.91;;;0.60;100.00